Trinity, Mississippi
Current Conditions -  °F | °C
As of 10:50 AM on Sunday 23 Nov 2014 (Local Time) from KGTR Reporting Station
Haze Haze  
Wind Chill: 61°   Ceiling: 500
Heat Index: 61°   Visibility: 3mi
Dew Point: 61°   Wind: 14mph
Humidity: 100%   Direction: 110°ESE
Pressure: 29.6"   Gusts: NA
Location:  33.3415°N, 88.5175°W
Report Text: KGTR 231650Z 11012KT 3SM BR OVC005 16/16 A2960
Loading
Personal Weather Stations






























Interactive Weather Map New forecast layout! Learn more

10-Day Weather Forecast

Advertisements
Track Severe Weather on mobile